Time;durP1;ratioP1;P1;durP2;ratioP2;P2;SDS_P1;SDS_P2;PMS_P1;PMS_P2;Temp;Humidity;BMP_temperature;BMP_pressure;BME280_temperature;BME280_humidity;BME280_pressure;Samples;Min_cycle;Max_cycle;Signal;HPM_P1;HPM_P2
2021/03/25 00:00:06;;;;;;;;;;;6.40;99.90;;;;;;5088843;28;20265;-66
2021/03/25 00:02:32;;;;;;;;;;;6.40;99.90;;;;;;5088694;28;19912;-66
2021/03/25 00:04:58;;;;;;;;;;;6.30;99.90;;;;;;5085427;28;20296;-66
2021/03/25 00:07:23;;;;;;;;;;;6.30;99.90;;;;;;5089202;28;19923;-66
2021/03/25 00:09:49;;;;;;;;;;;6.30;99.90;;;;;;5088711;28;19927;-66
2021/03/25 00:12:15;;;;;;;;;;;6.20;99.90;;;;;;5084556;28;19924;-66
2021/03/25 00:14:41;;;;;;;;;;;6.20;99.90;;;;;;5088943;28;19922;-66
2021/03/25 00:17:07;;;;;;;;;;;6.20;99.90;;;;;;5090163;28;19923;-66
2021/03/25 00:19:33;;;;;;;;;;;6.20;99.90;;;;;;5091052;28;20280;-66
2021/03/25 00:21:59;;;;;;;;;;;6.10;99.90;;;;;;5091762;28;19923;-66
2021/03/25 00:24:25;;;;;;;;;;;6.00;99.90;;;;;;5085704;28;19924;-66
2021/03/25 00:26:51;;;;;;;;;;;6.10;99.90;;;;;;5087537;28;19920;-66
2021/03/25 00:29:17;;;;;;;;;;;6.10;99.90;;;;;;5092287;28;19931;-66
2021/03/25 00:31:43;;;;;;;;;;;6.10;99.90;;;;;;5083352;28;20353;-67
2021/03/25 00:34:09;;;;;;;;;;;6.10;99.90;;;;;;5088838;28;19923;-66
2021/03/25 00:36:35;;;;;;;;;;;6.20;99.90;;;;;;5086208;28;19924;-66
2021/03/25 00:39:01;;;;;;;;;;;6.20;99.90;;;;;;5087038;28;19927;-66
2021/03/25 00:41:27;;;;;;;;;;;6.20;99.90;;;;;;5090798;28;19966;-66
2021/03/25 00:43:53;;;;;;;;;;;6.20;99.90;;;;;;5084319;28;19946;-66
2021/03/25 00:46:19;;;;;;;;;;;6.20;99.90;;;;;;5088413;28;20258;-64
2021/03/25 00:48:45;;;;;;;;;;;6.30;99.90;;;;;;5089000;28;19920;-64
2021/03/25 00:51:11;;;;;;;;;;;6.20;99.90;;;;;;5083187;28;19939;-66
2021/03/25 00:53:37;;;;;;;;;;;6.20;99.90;;;;;;5087690;28;19919;-66
2021/03/25 00:56:04;;;;;;;;;;;6.20;99.90;;;;;;5088889;28;19923;-66
2021/03/25 00:58:30;;;;;;;;;;;6.30;99.90;;;;;;5088514;28;19916;-66
2021/03/25 01:00:56;;;;;;;;;;;6.30;99.90;;;;;;5088904;28;20360;-66
2021/03/25 01:03:22;;;;;;;;;;;6.30;99.90;;;;;;5090922;28;19916;-65
2021/03/25 01:05:48;;;;;;;;;;;6.30;99.90;;;;;;5088801;28;19916;-66
2021/03/25 01:08:14;;;;;;;;;;;6.20;99.90;;;;;;5086765;28;20418;-66
2021/03/25 01:10:40;;;;;;;;;;;6.20;99.90;;;;;;5079743;28;20365;-66
2021/03/25 01:13:07;;;;;;;;;;;6.10;99.90;;;;;;5074301;28;19912;-66
2021/03/25 01:15:33;;;;;;;;;;;6.10;99.90;;;;;;5088062;28;19923;-67
2021/03/25 01:17:59;;;;;;;;;;;6.10;99.90;;;;;;5086861;28;20280;-66
2021/03/25 01:20:27;;;;;;;;;;;6.10;99.90;;;;;;5088640;28;19925;-66
2021/03/25 01:22:53;;;;;;;;;;;6.10;99.90;;;;;;5083598;28;19921;-66
2021/03/25 01:25:19;;;;;;;;;;;6.10;99.90;;;;;;5084114;28;19913;-67
2021/03/25 01:27:45;;;;;;;;;;;6.10;99.90;;;;;;5087053;28;19919;-66
2021/03/25 01:30:11;;;;;;;;;;;6.10;99.90;;;;;;5087084;28;20360;-66
2021/03/25 01:32:37;;;;;;;;;;;6.00;99.90;;;;;;5095578;28;19912;-66
2021/03/25 01:35:05;;;;;;;;;;;6.00;99.90;;;;;;5090325;28;19969;-66
2021/03/25 01:37:31;;;;;;;;;;;5.90;99.90;;;;;;5089569;28;19913;-66
2021/03/25 01:39:57;;;;;;;;;;;5.90;99.90;;;;;;5091978;28;20532;-66
2021/03/25 01:42:24;;;;;;;;;;;5.80;99.90;;;;;;5095013;28;19927;-66
2021/03/25 01:44:50;;;;;;;;;;;5.70;99.90;;;;;;5092312;28;19912;-66
2021/03/25 01:47:16;;;;;;;;;;;5.50;99.90;;;;;;5090875;28;19923;-66
2021/03/25 01:49:42;;;;;;;;;;;5.50;99.90;;;;;;5089713;28;19923;-66
2021/03/25 01:52:11;;;;;;;;;;;5.40;99.90;;;;;;5086708;28;19930;-66
2021/03/25 01:54:55;;;;;;;;;;;5.40;99.90;;;;;;5083565;28;19916;-66
2021/03/25 01:57:21;;;;;;;;;;;5.30;99.90;;;;;;5085338;28;20336;-66
2021/03/25 01:59:53;;;;;;;;;;;5.30;99.90;;;;;;5089147;28;19920;-66
2021/03/25 02:02:22;;;;;;;;;;;5.30;99.90;;;;;;5091863;28;19912;-66
2021/03/25 02:04:48;;;;;;;;;;;5.20;99.90;;;;;;5092880;28;20280;-66
2021/03/25 02:07:15;;;;;;;;;;;5.20;99.90;;;;;;5090754;28;19999;-66
2021/03/25 02:09:50;;;;;;;;;;;5.10;99.90;;;;;;5087018;28;19912;-66
2021/03/25 02:12:32;;;;;;;;;;;5.10;99.90;;;;;;5085722;28;20296;-66
2021/03/25 02:15:01;;;;;;;;;;;5.20;99.90;;;;;;5088314;28;19912;-66
2021/03/25 02:17:29;;;;;;;;;;;5.30;99.90;;;;;;5092773;28;19912;-66
2021/03/25 02:19:55;;;;;;;;;;;5.30;99.90;;;;;;5092162;28;19924;-66
2021/03/25 02:22:33;;;;;;;;;;;5.40;99.90;;;;;;5090814;28;20405;-66
2021/03/25 02:25:00;;;;;;;;;;;5.40;99.90;;;;;;5084432;28;19913;-66
2021/03/25 02:27:26;;;;;;;;;;;5.40;99.90;;;;;;5092623;28;19911;-66
2021/03/25 02:29:55;;;;;;;;;;;5.40;99.90;;;;;;5092223;28;20285;-66
2021/03/25 02:32:31;;;;;;;;;;;5.50;99.90;;;;;;5092439;28;19919;-66
2021/03/25 02:34:58;;;;;;;;;;;5.50;99.90;;;;;;5087881;28;20288;-66
2021/03/25 02:37:25;;;;;;;;;;;5.50;99.90;;;;;;5086303;28;19912;-66
2021/03/25 02:39:55;;;;;;;;;;;5.50;99.90;;;;;;5092069;28;19920;-66
2021/03/25 02:42:23;;;;;;;;;;;5.50;99.90;;;;;;5087007;28;19912;-66
2021/03/25 02:44:50;;;;;;;;;;;5.50;99.90;;;;;;5088769;28;19919;-66
2021/03/25 02:47:16;;;;;;;;;;;5.40;99.90;;;;;;5086420;28;19920;-66
2021/03/25 02:49:44;;;;;;;;;;;5.50;99.90;;;;;;5091738;28;20288;-65
2021/03/25 02:52:09;;;;;;;;;;;5.50;99.90;;;;;;5093151;28;19919;-66
2021/03/25 02:54:35;;;;;;;;;;;5.40;99.90;;;;;;5092394;28;20568;-66
2021/03/25 02:57:09;;;;;;;;;;;5.30;99.90;;;;;;5090027;28;19912;-66
2021/03/25 02:59:36;;;;;;;;;;;5.40;99.90;;;;;;5084198;28;19925;-63
2021/03/25 03:02:04;;;;;;;;;;;5.30;99.90;;;;;;5090687;28;20276;-65
2021/03/25 03:04:31;;;;;;;;;;;5.30;99.90;;;;;;5074415;28;19919;-65
2021/03/25 03:07:01;;;;;;;;;;;5.30;99.90;;;;;;5092491;28;20282;-65
2021/03/25 03:09:28;;;;;;;;;;;5.30;99.90;;;;;;5080459;28;20261;-63
2021/03/25 03:11:55;;;;;;;;;;;5.20;99.90;;;;;;5087581;27;20257;-64
2021/03/25 03:14:26;;;;;;;;;;;5.20;99.90;;;;;;5090745;28;19912;-64
2021/03/25 03:16:53;;;;;;;;;;;5.20;99.90;;;;;;5086260;28;19912;-63
2021/03/25 03:19:19;;;;;;;;;;;5.20;99.90;;;;;;5086311;28;19927;-64
2021/03/25 03:21:46;;;;;;;;;;;5.10;99.90;;;;;;5090548;28;20010;-63
2021/03/25 03:24:12;;;;;;;;;;;5.10;99.90;;;;;;5075707;28;20368;-64
2021/03/25 03:26:45;;;;;;;;;;;5.00;99.90;;;;;;5093055;28;19924;-65
2021/03/25 03:29:11;;;;;;;;;;;5.00;99.90;;;;;;5089685;28;19932;-66
2021/03/25 03:31:39;;;;;;;;;;;4.90;99.90;;;;;;5089823;28;19918;-65
2021/03/25 03:34:06;;;;;;;;;;;4.90;99.90;;;;;;5083784;28;19945;-66
2021/03/25 03:36:32;;;;;;;;;;;4.90;99.90;;;;;;5092143;28;19912;-65
2021/03/25 03:39:03;;;;;;;;;;;4.90;99.90;;;;;;5087085;28;19920;-66
2021/03/25 03:41:34;;;;;;;;;;;4.90;99.90;;;;;;5091152;28;19916;-65
2021/03/25 03:44:00;;;;;;;;;;;5.00;99.90;;;;;;5085959;28;19931;-66
2021/03/25 03:46:26;;;;;;;;;;;5.00;99.90;;;;;;5091492;28;19920;-65
2021/03/25 03:48:57;;;;;;;;;;;5.00;99.90;;;;;;5090392;28;19917;-66
2021/03/25 03:51:26;;;;;;;;;;;5.00;99.90;;;;;;5088720;28;19919;-66
2021/03/25 03:53:54;;;;;;;;;;;5.00;99.90;;;;;;5089260;28;19916;-66
2021/03/25 03:56:38;;;;;;;;;;;5.00;99.90;;;;;;5090284;28;19913;-66
2021/03/25 03:59:11;;;;;;;;;;;5.10;99.90;;;;;;5091375;28;19916;-63
2021/03/25 04:01:38;;;;;;;;;;;5.10;99.90;;;;;;5086363;28;19916;-65
2021/03/25 04:04:04;;;;;;;;;;;5.10;99.90;;;;;;5087427;28;20427;-66
2021/03/25 04:06:51;;;;;;;;;;;5.10;99.90;;;;;;5084276;28;20292;-65
2021/03/25 04:09:31;;;;;;;;;;;5.00;99.90;;;;;;5088564;28;19919;-65
2021/03/25 04:11:58;;;;;;;;;;;5.00;99.90;;;;;;5092061;28;19934;-66
2021/03/25 04:14:25;;;;;;;;;;;5.00;99.90;;;;;;5087651;28;19919;-63
2021/03/25 04:16:52;;;;;;;;;;;4.90;99.90;;;;;;5090198;28;20281;-63
2021/03/25 04:19:22;;;;;;;;;;;5.00;99.90;;;;;;5087295;28;19912;-66
2021/03/25 04:21:54;;;;;;;;;;;4.90;99.90;;;;;;5075320;28;19931;-65
2021/03/25 04:24:21;;;;;;;;;;;5.00;99.90;;;;;;5078779;28;19923;-66
2021/03/25 04:26:49;;;;;;;;;;;5.00;99.90;;;;;;5079323;28;20304;-65
2021/03/25 04:29:16;;;;;;;;;;;4.90;99.90;;;;;;5086957;28;19930;-66
2021/03/25 04:31:42;;;;;;;;;;;5.00;99.90;;;;;;5081618;28;19924;-65
2021/03/25 04:34:08;;;;;;;;;;;4.90;99.90;;;;;;5089063;28;20330;-65
2021/03/25 04:36:39;;;;;;;;;;;4.90;99.90;;;;;;5084428;28;19920;-65
2021/03/25 04:39:05;;;;;;;;;;;5.00;99.90;;;;;;5084332;28;19916;-65
2021/03/25 04:41:31;;;;;;;;;;;5.00;99.90;;;;;;5084782;28;19928;-66
2021/03/25 04:44:01;;;;;;;;;;;5.00;99.90;;;;;;5091254;28;19908;-65
2021/03/25 04:46:27;;;;;;;;;;;5.00;99.90;;;;;;5092284;28;19912;-65
2021/03/25 04:48:53;;;;;;;;;;;5.00;99.90;;;;;;5089170;28;19936;-65
2021/03/25 04:51:20;;;;;;;;;;;5.00;99.90;;;;;;5089064;28;20284;-64
2021/03/25 04:53:46;;;;;;;;;;;5.00;99.90;;;;;;5084087;28;19935;-65
2021/03/25 04:56:16;;;;;;;;;;;5.00;99.90;;;;;;5102214;28;19920;-65
2021/03/25 04:58:45;;;;;;;;;;;4.90;99.90;;;;;;5086668;28;19921;-65
2021/03/25 05:01:14;;;;;;;;;;;4.90;99.90;;;;;;5081222;28;20303;-65
2021/03/25 05:03:41;;;;;;;;;;;5.00;99.90;;;;;;5087750;28;19919;-65
2021/03/25 05:06:09;;;;;;;;;;;5.00;99.90;;;;;;5085076;28;19928;-65
2021/03/25 05:08:35;;;;;;;;;;;5.00;99.90;;;;;;5080126;28;19912;-65
2021/03/25 05:11:05;;;;;;;;;;;5.00;99.90;;;;;;5084403;28;19923;-65
2021/03/25 05:13:31;;;;;;;;;;;5.00;99.90;;;;;;5100688;28;19919;-65
2021/03/25 05:16:15;;;;;;;;;;;5.10;99.90;;;;;;5085030;28;19913;-64
2021/03/25 05:18:49;;;;;;;;;;;5.10;99.90;;;;;;5087726;28;20404;-64
2021/03/25 05:21:17;;;;;;;;;;;5.10;99.90;;;;;;5084513;28;19931;-64
2021/03/25 05:23:54;;;;;;;;;;;5.10;99.90;;;;;;5085300;28;19987;-64
2021/03/25 05:26:25;;;;;;;;;;;5.10;99.90;;;;;;5082384;28;19920;-64
2021/03/25 05:28:55;;;;;;;;;;;5.10;99.90;;;;;;5082976;28;19932;-64
2021/03/25 05:31:21;;;;;;;;;;;5.10;99.90;;;;;;5082044;28;19912;-64
2021/03/25 05:33:48;;;;;;;;;;;5.10;99.90;;;;;;5082417;28;19923;-64
2021/03/25 05:36:14;;;;;;;;;;;5.10;99.90;;;;;;5084144;28;19916;-64
2021/03/25 05:38:40;;;;;;;;;;;5.10;99.90;;;;;;5082270;28;19916;-64
2021/03/25 05:41:05;;;;;;;;;;;5.10;99.90;;;;;;5082360;28;19932;-64
2021/03/25 05:43:34;;;;;;;;;;;5.10;99.90;;;;;;5080926;28;19951;-64
2021/03/25 05:46:19;;;;;;;;;;;5.00;99.90;;;;;;5081732;28;19916;-64
2021/03/25 05:48:48;;;;;;;;;;;5.00;99.90;;;;;;5079279;28;20777;-63
2021/03/25 05:51:16;;;;;;;;;;;5.00;99.90;;;;;;5080145;28;20280;-64
2021/03/25 05:53:42;;;;;;;;;;;4.90;99.90;;;;;;5082073;28;19930;-64
2021/03/25 05:56:14;;;;;;;;;;;4.90;99.90;;;;;;5082635;28;19948;-64
2021/03/25 05:58:44;;;;;;;;;;;4.90;99.90;;;;;;5081169;28;19916;-63
2021/03/25 06:01:10;;;;;;;;;;;4.90;99.90;;;;;;5094923;28;20296;-65
2021/03/25 06:03:37;;;;;;;;;;;5.00;99.90;;;;;;5084382;28;20130;-65
2021/03/25 06:06:03;;;;;;;;;;;4.90;99.90;;;;;;5074187;28;19917;-65
2021/03/25 06:08:42;;;;;;;;;;;5.00;99.90;;;;;;5086945;28;19918;-65
2021/03/25 06:11:23;;;;;;;;;;;4.90;99.90;;;;;;5083101;28;19916;-62
2021/03/25 06:13:56;;;;;;;;;;;5.00;99.90;;;;;;5080973;28;19913;-62
2021/03/25 06:17:00;;;;;;;;;;;4.90;99.90;;;;;;5087361;28;19908;-62
2021/03/25 06:19:44;;;;;;;;;;;5.00;99.90;;;;;;5060527;28;19912;-62
2021/03/25 06:22:31;;;;;;;;;;;4.90;99.90;;;;;;5063581;28;20301;-62
2021/03/25 06:25:00;;;;;;;;;;;4.90;99.90;;;;;;5068159;28;19920;-64
2021/03/25 06:27:47;;;;;;;;;;;4.90;99.90;;;;;;5084277;28;19916;-62
2021/03/25 06:30:20;;;;;;;;;;;4.90;99.90;;;;;;5093951;28;19920;-63
2021/03/25 06:32:52;;;;;;;;;;;5.00;99.90;;;;;;5080064;28;19920;-62
2021/03/25 06:35:34;;;;;;;;;;;5.10;99.90;;;;;;5096613;28;20296;-64
2021/03/25 06:37:59;;;;;;;;;;;5.10;99.90;;;;;;5084333;28;20280;-65
2021/03/25 06:40:34;;;;;;;;;;;5.10;99.90;;;;;;5079979;28;20014;-62
2021/03/25 06:43:04;;;;;;;;;;;5.20;99.90;;;;;;5085199;28;19912;-63
2021/03/25 06:45:31;;;;;;;;;;;5.20;99.90;;;;;;5099699;28;19913;-64
2021/03/25 06:48:00;;;;;;;;;;;5.20;99.90;;;;;;5079784;28;19920;-63
2021/03/25 06:50:30;;;;;;;;;;;5.20;99.90;;;;;;5078393;28;19912;-63
2021/03/25 06:52:57;;;;;;;;;;;5.20;99.90;;;;;;5098969;28;19912;-64
2021/03/25 06:55:23;;;;;;;;;;;5.30;99.90;;;;;;5080345;28;19917;-64
2021/03/25 06:57:49;;;;;;;;;;;5.40;99.90;;;;;;5102120;28;19916;-64
2021/03/25 07:00:15;;;;;;;;;;;5.40;99.90;;;;;;5084051;28;20028;-64
2021/03/25 07:02:42;;;;;;;;;;;5.30;99.90;;;;;;5077221;28;19920;-63
2021/03/25 07:05:08;;;;;;;;;;;5.30;99.90;;;;;;5077073;28;19916;-64
2021/03/25 07:07:37;;;;;;;;;;;5.30;99.90;;;;;;5094476;28;19912;-65
2021/03/25 07:10:04;;;;;;;;;;;5.40;99.90;;;;;;5080841;28;19916;-64
2021/03/25 07:12:31;;;;;;;;;;;5.40;99.90;;;;;;5081158;28;20479;-64
2021/03/25 07:14:57;;;;;;;;;;;5.40;99.90;;;;;;5084921;28;19923;-64
2021/03/25 07:17:43;;;;;;;;;;;5.40;99.90;;;;;;5084637;28;19916;-64
2021/03/25 07:20:27;;;;;;;;;;;5.50;99.90;;;;;;5083993;28;19923;-63
2021/03/25 07:23:00;;;;;;;;;;;5.60;99.90;;;;;;5080371;28;19912;-64
2021/03/25 07:25:26;;;;;;;;;;;5.70;99.90;;;;;;5083687;28;19913;-65
2021/03/25 07:27:52;;;;;;;;;;;5.70;99.90;;;;;;5080695;28;19924;-65
2021/03/25 07:30:18;;;;;;;;;;;5.70;99.90;;;;;;5082450;28;20377;-63
2021/03/25 07:32:51;;;;;;;;;;;5.90;99.90;;;;;;5087666;28;19919;-63
2021/03/25 07:35:24;;;;;;;;;;;5.70;99.90;;;;;;5080197;28;19920;-64
2021/03/25 07:37:50;;;;;;;;;;;5.80;99.90;;;;;;5088570;28;19919;-64
2021/03/25 07:40:23;;;;;;;;;;;5.80;99.90;;;;;;5090188;28;19920;-64
2021/03/25 07:42:49;;;;;;;;;;;5.90;99.90;;;;;;5089913;28;19916;-63
2021/03/25 07:45:36;;;;;;;;;;;5.80;99.90;;;;;;5089944;28;19913;-64
2021/03/25 07:48:28;;;;;;;;;;;5.70;99.90;;;;;;5091965;28;19945;-66
2021/03/25 07:51:10;;;;;;;;;;;5.60;99.90;;;;;;5086110;28;19919;-66
2021/03/25 07:53:36;;;;;;;;;;;5.60;99.90;;;;;;5090642;28;20288;-64
2021/03/25 07:56:06;;;;;;;;;;;5.60;99.90;;;;;;5088039;28;19919;-64
2021/03/25 07:58:39;;;;;;;;;;;5.60;99.90;;;;;;5084510;28;19916;-64
2021/03/25 08:01:15;;;;;;;;;;;5.50;99.90;;;;;;5088474;28;19920;-63
2021/03/25 08:03:44;;;;;;;;;;;5.60;99.90;;;;;;5089825;28;20270;-63
2021/03/25 08:06:20;;;;;;;;;;;5.60;99.90;;;;;;5088136;28;20390;-63
2021/03/25 08:08:45;;;;;;;;;;;5.60;99.90;;;;;;5091747;28;20379;-63
2021/03/25 08:11:15;;;;;;;;;;;5.70;99.90;;;;;;5089357;28;19912;-64
2021/03/25 08:13:48;;;;;;;;;;;5.90;99.90;;;;;;5089935;28;19912;-64
2021/03/25 08:16:16;;;;;;;;;;;5.90;99.90;;;;;;5087587;28;19927;-64
2021/03/25 08:19:01;;;;;;;;;;;6.00;99.90;;;;;;5086372;28;19978;-66
2021/03/25 08:21:29;;;;;;;;;;;6.10;99.90;;;;;;5091751;28;19920;-66
2021/03/25 08:24:05;;;;;;;;;;;6.10;99.90;;;;;;5091968;28;19915;-65
2021/03/25 08:26:31;;;;;;;;;;;5.90;99.90;;;;;;5087720;28;20285;-66
2021/03/25 08:29:15;;;;;;;;;;;6.20;99.90;;;;;;5090493;28;19928;-65
2021/03/25 08:31:51;;;;;;;;;;;6.20;99.90;;;;;;5088030;28;19919;-63
2021/03/25 08:34:35;;;;;;;;;;;6.30;99.90;;;;;;5088354;28;19923;-66
2021/03/25 08:37:11;;;;;;;;;;;6.20;99.90;;;;;;5084655;28;19928;-67
2021/03/25 08:39:53;;;;;;;;;;;6.20;99.90;;;;;;5084025;28;19915;-66
2021/03/25 08:42:22;;;;;;;;;;;6.30;99.90;;;;;;5088876;28;19921;-66
2021/03/25 08:44:51;;;;;;;;;;;6.50;99.90;;;;;;5090462;28;19916;-66
2021/03/25 08:47:20;;;;;;;;;;;6.50;99.90;;;;;;5088945;28;20368;-66
2021/03/25 08:49:51;;;;;;;;;;;6.50;99.90;;;;;;5088203;28;19917;-66
2021/03/25 08:52:17;;;;;;;;;;;6.20;99.90;;;;;;5088585;28;19916;-67
2021/03/25 08:54:45;;;;;;;;;;;6.20;99.90;;;;;;5086398;28;19919;-63
2021/03/25 08:57:11;;;;;;;;;;;6.20;99.90;;;;;;5086522;28;19919;-63
2021/03/25 08:59:38;;;;;;;;;;;6.20;99.90;;;;;;5089988;28;19920;-65
2021/03/25 09:02:18;;;;;;;;;;;6.60;99.90;;;;;;5073179;28;19921;-67
2021/03/25 09:04:49;;;;;;;;;;;7.20;99.90;;;;;;5087719;28;19912;-66
2021/03/25 09:07:15;;;;;;;;;;;7.30;99.90;;;;;;5087977;28;19913;-66
2021/03/25 09:09:43;;;;;;;;;;;7.30;99.90;;;;;;5083024;28;19912;-67
2021/03/25 09:12:10;;;;;;;;;;;6.90;99.90;;;;;;5074612;28;19932;-67
2021/03/25 09:14:35;;;;;;;;;;;6.60;99.90;;;;;;5073561;28;19919;-66
2021/03/25 09:17:02;;;;;;;;;;;6.70;99.90;;;;;;5079441;28;19913;-68
2021/03/25 09:19:30;;;;;;;;;;;6.80;99.90;;;;;;5079629;28;20399;-66
2021/03/25 09:21:56;;;;;;;;;;;6.70;99.90;;;;;;5071953;28;19924;-67
2021/03/25 09:24:22;;;;;;;;;;;6.60;99.90;;;;;;5083522;28;19917;-66
2021/03/25 09:26:51;;;;;;;;;;;6.80;99.90;;;;;;5084373;28;19923;-67
2021/03/25 09:29:19;;;;;;;;;;;6.80;99.90;;;;;;5085412;28;19929;-67
2021/03/25 09:31:54;;;;;;;;;;;6.80;99.90;;;;;;5088400;28;19912;-68
2021/03/25 09:34:23;;;;;;;;;;;6.70;99.90;;;;;;5077829;28;19917;-67
2021/03/25 09:36:58;;;;;;;;;;;6.60;99.90;;;;;;5079995;28;19912;-68
2021/03/25 09:39:30;;;;;;;;;;;6.50;99.90;;;;;;5084934;28;19923;-67
2021/03/25 09:41:57;;;;;;;;;;;6.60;99.90;;;;;;5093425;28;19927;-67
2021/03/25 09:44:27;;;;;;;;;;;6.80;99.90;;;;;;5087303;28;19912;-67
2021/03/25 09:46:53;;;;;;;;;;;6.90;99.90;;;;;;5089199;28;20292;-66
2021/03/25 09:49:27;;;;;;;;;;;6.80;99.90;;;;;;5091887;28;19924;-67
2021/03/25 09:52:08;;;;;;;;;;;6.90;99.90;;;;;;5095173;28;19912;-68
2021/03/25 09:54:36;;;;;;;;;;;6.80;99.90;;;;;;5078080;28;19919;-67
2021/03/25 09:57:15;;;;;;;;;;;6.90;99.90;;;;;;5077643;28;19919;-67
2021/03/25 09:59:59;;;;;;;;;;;6.80;99.90;;;;;;5075977;28;20399;-67
2021/03/25 10:02:38;;;;;;;;;;;6.80;99.90;;;;;;5094716;28;19943;-67
2021/03/25 10:05:25;;;;;;;;;;;6.60;99.90;;;;;;5091900;28;19923;-67
2021/03/25 10:07:51;;;;;;;;;;;6.70;99.90;;;;;;5091860;28;19912;-67
2021/03/25 10:10:23;;;;;;;;;;;6.90;99.90;;;;;;5087310;28;20014;-67
2021/03/25 10:12:52;;;;;;;;;;;7.10;99.90;;;;;;5084246;28;20316;-66
2021/03/25 10:15:27;;;;;;;;;;;7.20;99.90;;;;;;5083312;28;19916;-67
2021/03/25 10:17:53;;;;;;;;;;;7.20;99.90;;;;;;5094800;28;19912;-67
2021/03/25 10:20:45;;;;;;;;;;;6.80;99.90;;;;;;5084606;28;19912;-66
2021/03/25 10:23:16;;;;;;;;;;;6.60;99.90;;;;;;5062389;28;19916;-66
2021/03/25 10:25:42;;;;;;;;;;;6.50;99.90;;;;;;5092014;28;19912;-67
2021/03/25 10:28:10;;;;;;;;;;;6.40;99.90;;;;;;5087865;28;19917;-67
2021/03/25 10:30:36;;;;;;;;;;;6.50;99.90;;;;;;5073690;28;19921;-67
2021/03/25 10:33:06;;;;;;;;;;;6.60;99.90;;;;;;5084192;28;19916;-64
2021/03/25 10:35:39;;;;;;;;;;;6.70;99.90;;;;;;5095294;28;19908;-67
2021/03/25 10:38:06;;;;;;;;;;;6.60;99.90;;;;;;5089642;28;19919;-65
2021/03/25 10:40:37;;;;;;;;;;;6.70;99.90;;;;;;5093834;28;19908;-65
2021/03/25 10:43:03;;;;;;;;;;;6.70;99.90;;;;;;5093316;28;19908;-64
2021/03/25 10:45:37;;;;;;;;;;;6.60;99.90;;;;;;5093000;28;19916;-65
2021/03/25 10:48:07;;;;;;;;;;;6.70;99.90;;;;;;5089233;28;20375;-65
2021/03/25 10:50:40;;;;;;;;;;;6.80;99.90;;;;;;5076757;28;19936;-68
2021/03/25 10:53:10;;;;;;;;;;;7.10;99.90;;;;;;5073095;28;19916;-68
2021/03/25 10:55:37;;;;;;;;;;;7.00;99.90;;;;;;5079759;28;19912;-68
2021/03/25 10:58:03;;;;;;;;;;;7.00;99.90;;;;;;5090553;28;19912;-66
2021/03/25 11:00:30;;;;;;;;;;;7.10;99.90;;;;;;5073413;28;19916;-67
2021/03/25 11:02:58;;;;;;;;;;;7.20;99.90;;;;;;5074588;28;20308;-68
2021/03/25 11:05:27;;;;;;;;;;;7.40;99.90;;;;;;5071401;28;19917;-68
2021/03/25 11:07:57;;;;;;;;;;;7.40;99.90;;;;;;5073660;28;19919;-67
2021/03/25 11:10:27;;;;;;;;;;;7.40;99.90;;;;;;5081787;28;19919;-67
2021/03/25 11:13:04;;;;;;;;;;;7.10;99.90;;;;;;5086366;28;19916;-68
2021/03/25 11:15:39;;;;;;;;;;;7.10;99.90;;;;;;5086940;28;19920;-67
2021/03/25 11:18:16;;;;;;;;;;;7.10;99.90;;;;;;5087026;28;20291;-68
2021/03/25 11:20:42;;;;;;;;;;;7.20;99.90;;;;;;5084662;28;20364;-67
2021/03/25 11:23:08;;;;;;;;;;;7.30;99.90;;;;;;5081287;28;19912;-68
2021/03/25 11:25:34;;;;;;;;;;;7.90;99.90;;;;;;5078686;28;19920;-68
2021/03/25 11:28:02;;;;;;;;;;;8.00;99.90;;;;;;5077747;28;19961;-68
2021/03/25 11:30:32;;;;;;;;;;;8.00;99.90;;;;;;5075537;28;20409;-67
2021/03/25 11:32:58;;;;;;;;;;;7.90;99.90;;;;;;5075454;28;20373;-67
2021/03/25 11:35:50;;;;;;;;;;;8.00;99.90;;;;;;5080489;28;19951;-68
2021/03/25 11:38:16;;;;;;;;;;;7.90;99.90;;;;;;5072938;28;19919;-67
2021/03/25 11:40:43;;;;;;;;;;;7.80;99.90;;;;;;5078156;28;19912;-67
2021/03/25 11:43:16;;;;;;;;;;;7.70;99.90;;;;;;5084003;28;20292;-66
2021/03/25 11:45:46;;;;;;;;;;;7.60;99.90;;;;;;5079208;28;20280;-67
2021/03/25 11:48:31;;;;;;;;;;;7.70;99.90;;;;;;5084110;28;19917;-67
2021/03/25 11:51:17;;;;;;;;;;;7.70;99.90;;;;;;5072532;28;19919;-67
2021/03/25 11:53:46;;;;;;;;;;;7.70;99.90;;;;;;5068834;28;19917;-68
2021/03/25 11:56:21;;;;;;;;;;;7.70;99.90;;;;;;5078155;28;19931;-68
2021/03/25 11:59:07;;;;;;;;;;;7.60;99.90;;;;;;5085847;28;19912;-67
2021/03/25 12:01:33;;;;;;;;;;;7.80;99.90;;;;;;5069468;28;19935;-68
2021/03/25 12:04:00;;;;;;;;;;;7.80;99.90;;;;;;5071321;28;19921;-68
2021/03/25 12:06:26;;;;;;;;;;;7.80;99.90;;;;;;5081693;28;19913;-69
2021/03/25 12:09:04;;;;;;;;;;;7.90;99.90;;;;;;5073661;28;19919;-68
2021/03/25 12:11:32;;;;;;;;;;;7.90;99.90;;;;;;5085708;28;19919;-68
2021/03/25 12:13:58;;;;;;;;;;;8.20;99.90;;;;;;5087441;28;19920;-67
2021/03/25 12:16:24;;;;;;;;;;;8.10;99.90;;;;;;5086018;28;19923;-68
2021/03/25 12:18:50;;;;;;;;;;;8.10;99.90;;;;;;5084213;28;19920;-68
2021/03/25 12:21:16;;;;;;;;;;;8.30;99.90;;;;;;5082840;28;19920;-68
2021/03/25 12:23:43;;;;;;;;;;;8.30;99.90;;;;;;5082384;28;19913;-67
2021/03/25 12:26:14;;;;;;;;;;;8.20;99.90;;;;;;5083448;28;19961;-68
2021/03/25 12:28:40;;;;;;;;;;;8.00;99.90;;;;;;5080774;28;19924;-67
2021/03/25 12:31:06;;;;;;;;;;;8.10;99.90;;;;;;5072362;28;19960;-68
2021/03/25 12:33:35;;;;;;;;;;;8.20;99.90;;;;;;5073346;28;20383;-68
2021/03/25 12:36:01;;;;;;;;;;;8.40;99.90;;;;;;5082812;28;19927;-68
2021/03/25 12:38:28;;;;;;;;;;;8.60;99.90;;;;;;5072569;28;19917;-69
2021/03/25 12:40:53;;;;;;;;;;;9.00;99.90;;;;;;5071080;28;19916;-69
2021/03/25 12:43:21;;;;;;;;;;;9.00;99.90;;;;;;5072956;28;19931;-69
2021/03/25 12:45:50;;;;;;;;;;;8.80;99.90;;;;;;5086336;28;20353;-68
2021/03/25 12:48:19;;;;;;;;;;;8.70;99.90;;;;;;5082202;28;19912;-63
2021/03/25 12:50:45;;;;;;;;;;;8.60;99.90;;;;;;5090236;28;20302;-68
2021/03/25 12:53:11;;;;;;;;;;;8.80;99.90;;;;;;5086123;28;19923;-69
2021/03/25 12:55:37;;;;;;;;;;;8.90;99.90;;;;;;5091253;28;19912;-70
2021/03/25 12:58:03;;;;;;;;;;;8.90;99.90;;;;;;5090329;28;19923;-69
2021/03/25 13:00:29;;;;;;;;;;;8.70;99.90;;;;;;5088301;28;19924;-68
2021/03/25 13:02:55;;;;;;;;;;;8.50;99.90;;;;;;5091017;28;20257;-68
2021/03/25 13:05:21;;;;;;;;;;;8.50;99.90;;;;;;5087498;28;19916;-68
2021/03/25 13:07:47;;;;;;;;;;;8.40;99.90;;;;;;5088386;28;19919;-68
2021/03/25 13:10:14;;;;;;;;;;;8.50;99.90;;;;;;5090665;28;19924;-69
2021/03/25 13:12:39;;;;;;;;;;;8.40;99.90;;;;;;5089763;28;19924;-68
2021/03/25 13:15:06;;;;;;;;;;;8.50;99.90;;;;;;5091930;28;19923;-68
2021/03/25 13:17:32;;;;;;;;;;;8.40;99.90;;;;;;5092776;28;19912;-68
2021/03/25 13:19:58;;;;;;;;;;;8.30;99.90;;;;;;5092499;28;20461;-68
2021/03/25 13:22:25;;;;;;;;;;;8.20;99.90;;;;;;5092063;28;19921;-69
2021/03/25 13:24:51;;;;;;;;;;;8.10;99.90;;;;;;5092228;28;20276;-69
2021/03/25 13:27:17;;;;;;;;;;;8.10;99.90;;;;;;5088995;28;19912;-68
2021/03/25 13:29:43;;;;;;;;;;;8.10;99.90;;;;;;5095436;28;19931;-69
2021/03/25 13:32:09;;;;;;;;;;;8.10;99.90;;;;;;5092230;28;19916;-69
2021/03/25 13:34:35;;;;;;;;;;;8.10;99.90;;;;;;5092679;28;19916;-69
2021/03/25 13:37:01;;;;;;;;;;;8.30;99.90;;;;;;5094251;28;19916;-69
2021/03/25 13:39:27;;;;;;;;;;;8.40;99.90;;;;;;5091898;28;20498;-69
2021/03/25 13:41:53;;;;;;;;;;;8.50;99.90;;;;;;5093231;28;19920;-68
2021/03/25 13:44:19;;;;;;;;;;;8.40;99.90;;;;;;5092257;28;19916;-68
2021/03/25 13:46:45;;;;;;;;;;;8.30;99.90;;;;;;5091436;28;19945;-68
2021/03/25 13:49:10;;;;;;;;;;;8.30;99.90;;;;;;5094688;28;19912;-69
2021/03/25 13:51:37;;;;;;;;;;;8.30;99.90;;;;;;5093544;28;19920;-69
2021/03/25 13:54:03;;;;;;;;;;;8.30;99.90;;;;;;5090833;28;19912;-70
2021/03/25 13:56:29;;;;;;;;;;;8.20;99.90;;;;;;5094739;28;20400;-69
2021/03/25 13:58:55;;;;;;;;;;;8.20;99.90;;;;;;5087707;28;20019;-69
2021/03/25 14:01:21;;;;;;;;;;;8.10;99.90;;;;;;5092442;28;19920;-68
2021/03/25 14:03:46;;;;;;;;;;;8.10;99.90;;;;;;5092943;28;19928;-70
2021/03/25 14:06:12;;;;;;;;;;;8.20;99.90;;;;;;5091868;28;20276;-68
2021/03/25 14:08:38;;;;;;;;;;;8.20;99.90;;;;;;5095522;28;19920;-68
2021/03/25 14:11:04;;;;;;;;;;;8.30;99.90;;;;;;5095624;28;19955;-69
2021/03/25 14:13:30;;;;;;;;;;;8.50;99.90;;;;;;5088567;28;19960;-68
2021/03/25 14:15:56;;;;;;;;;;;8.50;99.90;;;;;;5090644;28;19916;-69
2021/03/25 14:18:23;;;;;;;;;;;8.40;99.90;;;;;;5091814;28;19923;-68
2021/03/25 14:20:52;;;;;;;;;;;8.30;99.90;;;;;;5093145;28;20375;-69
2021/03/25 14:23:19;;;;;;;;;;;8.50;99.90;;;;;;5091803;28;19916;-68
2021/03/25 14:25:45;;;;;;;;;;;8.50;99.90;;;;;;5087254;28;19912;-68
2021/03/25 14:28:12;;;;;;;;;;;8.50;99.90;;;;;;5074760;28;19916;-68
2021/03/25 14:30:38;;;;;;;;;;;8.40;99.90;;;;;;5087891;28;19924;-67
2021/03/25 14:33:04;;;;;;;;;;;8.30;99.90;;;;;;5089741;28;19908;-68
2021/03/25 14:35:30;;;;;;;;;;;8.30;99.90;;;;;;5088921;28;19974;-66
2021/03/25 14:37:56;;;;;;;;;;;8.20;99.90;;;;;;5093677;28;19908;-67
2021/03/25 14:40:22;;;;;;;;;;;8.00;99.90;;;;;;5093941;28;19908;-68
2021/03/25 14:42:48;;;;;;;;;;;7.90;99.90;;;;;;5093622;28;20360;-68